Time;durP1;ratioP1;P1;durP2;ratioP2;P2;SDS_P1;SDS_P2;PMS_P1;PMS_P2;Temp;Humidity;BMP_temperature;BMP_pressure;BME280_temperature;BME280_humidity;BME280_pressure;Samples;Min_cycle;Max_cycle;Signal;HPM_P1;HPM_P2
2022/05/12 00:00:51;;;;;;;14.65;7.63;;;16.00;99.90;;;;;;5017906;28;20079;-85
2022/05/12 00:03:32;;;;;;;11.82;7.32;;;16.00;99.90;;;;;;5017971;28;20038;-84
2022/05/12 00:05:58;;;;;;;20.98;7.75;;;16.10;99.90;;;;;;5034051;28;20064;-84
2022/05/12 00:08:24;;;;;;;11.32;7.57;;;16.10;99.90;;;;;;5017121;28;20037;-85
2022/05/12 00:10:49;;;;;;;12.73;7.93;;;16.10;99.90;;;;;;5033178;28;20037;-84
2022/05/12 00:13:15;;;;;;;14.32;7.97;;;16.00;99.90;;;;;;5017339;28;20085;-85
2022/05/12 00:15:41;;;;;;;10.90;7.97;;;15.90;99.90;;;;;;5017196;28;20029;-85
2022/05/12 00:18:08;;;;;;;12.48;7.78;;;16.00;99.90;;;;;;5016179;28;20148;-85
2022/05/12 00:20:37;;;;;;;12.20;7.75;;;16.00;99.90;;;;;;5033256;28;20420;-85
2022/05/12 00:23:06;;;;;;;9.75;7.05;;;16.00;99.90;;;;;;5016594;28;20030;-84
2022/05/12 00:25:33;;;;;;;12.18;7.05;;;16.10;99.90;;;;;;5033622;28;20034;-85
2022/05/12 00:27:58;;;;;;;11.30;6.70;;;16.00;99.90;;;;;;5017066;28;20030;-84
2022/05/12 00:30:24;;;;;;;9.88;6.70;;;16.00;99.90;;;;;;5016543;28;20036;-84
2022/05/12 00:32:50;;;;;;;11.88;6.20;;;16.00;99.90;;;;;;5033498;28;20021;-84
2022/05/12 00:35:17;;;;;;;6.95;5.25;;;15.90;99.90;;;;;;5017622;28;20037;-85
2022/05/12 00:37:43;;;;;;;10.90;6.47;;;16.00;99.90;;;;;;5016785;28;20034;-85
2022/05/12 00:40:11;;;;;;;14.55;6.07;;;16.00;99.90;;;;;;5033184;28;20060;-85
2022/05/12 00:42:37;;;;;;;9.20;5.57;;;15.90;99.90;;;;;;5016611;28;20439;-84
2022/05/12 00:45:03;;;;;;;10.07;6.57;;;15.80;99.90;;;;;;5033328;28;20063;-84
2022/05/12 00:47:29;;;;;;;11.82;6.10;;;15.80;99.90;;;;;;5033157;28;20500;-84
2022/05/12 00:49:55;;;;;;;9.43;5.95;;;15.80;99.90;;;;;;5016794;28;20108;-84
2022/05/12 00:53:07;;;;;;;8.93;5.32;;;15.70;99.90;;;;;;5016527;28;20527;-83
2022/05/12 00:55:39;;;;;;;11.02;5.45;;;15.80;99.90;;;;;;5015124;28;20803;-84
2022/05/12 00:58:08;;;;;;;9.55;5.35;;;15.90;99.90;;;;;;5032372;28;20124;-84
2022/05/12 01:00:35;;;;;;;12.38;5.43;;;15.90;99.90;;;;;;5032689;28;20392;-84
2022/05/12 01:03:05;;;;;;;9.30;5.38;;;15.90;99.90;;;;;;5015934;28;20032;-84
2022/05/12 01:05:31;;;;;;;8.93;5.07;;;15.90;99.90;;;;;;5033803;28;20029;-84
2022/05/12 01:07:58;;;;;;;12.32;5.00;;;15.80;99.90;;;;;;5032296;28;20030;-84
2022/05/12 01:10:25;;;;;;;9.07;5.25;;;15.80;99.90;;;;;;5015508;28;20130;-84
2022/05/12 01:13:00;;;;;;;8.52;5.32;;;15.80;99.90;;;;;;5033505;28;20117;-84
2022/05/12 01:15:26;;;;;;;9.45;4.28;;;15.80;99.90;;;;;;5015880;28;20045;-84
2022/05/12 01:18:15;;;;;;;7.25;3.83;;;16.00;99.90;;;;;;5031999;28;20389;-84
2022/05/12 01:20:41;;;;;;;7.55;3.92;;;16.10;99.90;;;;;;5015640;28;20692;-84
2022/05/12 01:23:30;;;;;;;10.65;3.58;;;16.20;99.90;;;;;;5016008;28;20065;-84
2022/05/12 01:26:03;;;;;;;5.90;3.90;;;16.10;99.90;;;;;;5033514;28;20695;-84
2022/05/12 01:28:29;;;;;;;6.28;3.60;;;16.10;99.90;;;;;;5010095;28;20390;-83
2022/05/12 01:30:56;;;;;;;7.82;3.67;;;16.20;99.90;;;;;;5031295;28;20022;-84
2022/05/12 01:33:22;;;;;;;6.78;3.42;;;16.20;99.90;;;;;;5015399;28;20033;-85
2022/05/12 01:35:48;;;;;;;8.45;4.05;;;16.20;99.90;;;;;;5015260;28;20036;-84
2022/05/12 01:38:14;;;;;;;5.93;3.33;;;16.20;99.90;;;;;;5032665;28;20523;-84
2022/05/12 01:40:40;;;;;;;7.15;3.40;;;16.30;99.90;;;;;;5014526;28;20068;-84
2022/05/12 01:43:06;;;;;;;10.10;3.45;;;16.30;99.90;;;;;;5014837;28;20029;-84
2022/05/12 01:45:32;;;;;;;5.95;3.10;;;16.30;99.90;;;;;;5031412;28;20052;-84
2022/05/12 01:47:58;;;;;;;9.68;3.95;;;16.30;99.90;;;;;;5015165;28;20099;-84
2022/05/12 01:50:24;;;;;;;7.75;3.78;;;16.40;99.90;;;;;;5031246;28;20368;-85
2022/05/12 01:52:49;;;;;;;6.05;3.03;;;16.40;99.90;;;;;;5015145;28;20028;-84
2022/05/12 01:55:18;;;;;;;7.25;3.10;;;16.40;99.90;;;;;;5031523;28;20511;-84
2022/05/12 01:57:44;;;;;;;9.20;3.63;;;16.30;99.90;;;;;;5015363;28;20041;-84
2022/05/12 02:00:16;;;;;;;4.72;3.42;;;16.30;99.90;;;;;;5031729;28;20034;-84
2022/05/12 02:02:42;;;;;;;10.38;3.03;;;16.30;99.90;;;;;;5015427;28;20079;-84
2022/05/12 02:05:10;;;;;;;4.22;3.35;;;16.30;99.90;;;;;;5014997;28;20442;-84
2022/05/12 02:07:41;;;;;;;11.52;3.38;;;16.40;99.90;;;;;;5032044;28;20124;-84
2022/05/12 02:10:09;;;;;;;6.73;3.33;;;16.30;99.90;;;;;;5015508;28;20029;-84
2022/05/12 02:12:35;;;;;;;7.88;3.00;;;16.30;99.90;;;;;;5032572;28;20667;-84
2022/05/12 02:15:01;;;;;;;10.65;3.22;;;16.20;99.90;;;;;;5033543;28;20116;-84
2022/05/12 02:17:27;;;;;;;6.32;2.95;;;16.20;99.90;;;;;;5034216;28;20029;-84
2022/05/12 02:19:52;;;;;;;4.72;3.20;;;16.20;99.90;;;;;;5024974;28;20029;-84
2022/05/12 02:22:18;;;;;;;3.65;3.13;;;16.30;99.90;;;;;;5034192;28;20071;-84
2022/05/12 02:24:45;;;;;;;13.20;3.20;;;16.30;99.90;;;;;;5031500;28;20018;-83
2022/05/12 02:27:11;;;;;;;5.90;4.00;;;16.20;99.90;;;;;;5014572;28;20037;-84
2022/05/12 02:29:37;;;;;;;4.63;3.00;;;16.20;99.90;;;;;;5014855;28;20037;-85
2022/05/12 02:32:03;;;;;;;10.07;3.22;;;16.20;99.90;;;;;;5014872;28;20109;-84
2022/05/12 02:34:29;;;;;;;7.95;2.97;;;16.10;99.90;;;;;;5014867;28;20389;-84
2022/05/12 02:37:00;;;;;;;5.95;3.05;;;16.10;99.90;;;;;;5014938;28;20033;-85
2022/05/12 02:39:28;;;;;;;6.50;3.33;;;16.00;99.90;;;;;;5014841;28;20048;-84
2022/05/12 02:42:08;;;;;;;4.43;3.25;;;15.90;99.90;;;;;;5015119;28;20080;-84
2022/05/12 02:44:35;;;;;;;7.68;3.35;;;15.80;99.90;;;;;;5031495;28;20064;-84
2022/05/12 02:47:02;;;;;;;5.00;3.50;;;15.80;99.90;;;;;;5031440;28;20029;-84
2022/05/12 02:49:28;;;;;;;9.07;4.00;;;15.70;99.90;;;;;;5031176;28;20040;-84
2022/05/12 02:51:54;;;;;;;7.47;3.17;;;15.60;99.90;;;;;;5030859;28;20108;-84
2022/05/12 02:54:19;;;;;;;6.78;3.17;;;15.60;99.90;;;;;;5032548;28;20520;-84
2022/05/12 02:56:46;;;;;;;10.02;3.72;;;15.60;99.90;;;;;;5031489;28;20043;-84
2022/05/12 02:59:12;;;;;;;8.63;3.22;;;15.50;99.90;;;;;;5014563;28;20068;-84
2022/05/12 03:01:39;;;;;;;7.45;3.35;;;15.60;99.90;;;;;;5015015;28;20836;-84
2022/05/12 03:04:05;;;;;;;6.05;3.80;;;15.50;99.90;;;;;;5015164;28;20076;-84
2022/05/12 03:06:32;;;;;;;5.28;4.10;;;15.50;99.90;;;;;;5031487;28;20042;-84
2022/05/12 03:08:58;;;;;;;5.22;3.30;;;15.40;99.90;;;;;;5032691;28;20113;-84
2022/05/12 03:11:24;;;;;;;4.60;3.60;;;15.40;99.90;;;;;;5015003;28;20037;-84
2022/05/12 03:13:51;;;;;;;7.00;3.85;;;15.30;99.90;;;;;;5014964;28;20103;-84
2022/05/12 03:16:18;;;;;;;7.20;2.95;;;15.30;99.90;;;;;;5031011;28;20026;-84
2022/05/12 03:18:51;;;;;;;6.72;3.17;;;15.30;99.90;;;;;;5033114;28;20396;-85
2022/05/12 03:21:18;;;;;;;3.97;2.95;;;15.20;99.90;;;;;;5034232;28;20041;-84
2022/05/12 03:23:44;;;;;;;7.90;3.13;;;15.20;99.90;;;;;;5017508;28;20041;-84
2022/05/12 03:26:10;;;;;;;8.18;3.67;;;15.10;99.90;;;;;;5033897;28;20064;-84
2022/05/12 03:28:38;;;;;;;15.52;4.45;;;15.00;99.90;;;;;;5033656;28;20509;-84
2022/05/12 03:31:04;;;;;;;5.07;3.47;;;14.90;99.90;;;;;;5033900;28;20620;-84
2022/05/12 03:33:30;;;;;;;5.68;3.25;;;14.90;99.90;;;;;;5017458;28;20036;-84
2022/05/12 03:35:58;;;;;;;8.98;3.72;;;14.90;99.90;;;;;;5017649;28;20029;-84
2022/05/12 03:38:24;;;;;;;6.80;3.53;;;14.80;99.90;;;;;;5017696;28;20037;-85
2022/05/12 03:40:50;;;;;;;7.82;3.53;;;14.70;99.90;;;;;;5034044;28;20033;-84
2022/05/12 03:44:46;;;;;;;8.50;3.15;;;14.70;99.90;;;;;;5017802;28;20049;-85
2022/05/12 03:46:02;;;;;;;8.40;3.95;;;14.60;99.90;;;;;;5034237;28;20041;-84
2022/05/12 03:48:28;;;;;;;13.00;4.00;;;14.50;99.90;;;;;;5017548;28;20071;-81
2022/05/12 03:50:54;;;;;;;14.43;3.70;;;14.40;99.90;;;;;;5017104;28;20029;-82
2022/05/12 03:53:20;;;;;;;8.85;3.83;;;14.40;99.90;;;;;;5017297;28;20033;-81
2022/05/12 03:55:46;;;;;;;5.43;3.88;;;14.60;99.90;;;;;;5017720;28;20029;-82
2022/05/12 03:58:11;;;;;;;7.70;3.55;;;14.60;99.90;;;;;;5017480;28;20037;-82
2022/05/12 04:00:38;;;;;;;5.95;3.55;;;14.60;99.90;;;;;;5017294;28;20442;-81
2022/05/12 04:03:04;;;;;;;11.27;3.42;;;14.60;99.90;;;;;;5033419;28;20056;-82
2022/05/12 04:05:31;;;;;;;7.78;3.75;;;14.60;99.90;;;;;;5033451;28;20025;-81
2022/05/12 04:07:57;;;;;;;6.53;3.60;;;14.70;99.90;;;;;;5017227;28;20033;-82
2022/05/12 04:10:25;;;;;;;6.20;3.22;;;14.90;99.90;;;;;;5016958;28;20051;-81
2022/05/12 04:12:52;;;;;;;6.30;3.28;;;15.00;99.90;;;;;;5033571;28;20155;-82
2022/05/12 04:15:19;;;;;;;7.82;3.42;;;15.00;99.90;;;;;;5015659;28;20030;-81
2022/05/12 04:17:58;;;;;;;5.18;3.53;;;15.10;99.90;;;;;;5033587;28;20409;-82
2022/05/12 04:20:24;;;;;;;6.85;4.20;;;15.00;99.90;;;;;;5032941;28;20495;-81
2022/05/12 04:22:51;;;;;;;7.70;3.17;;;15.00;99.90;;;;;;5017036;28;20021;-81
2022/05/12 04:25:17;;;;;;;4.68;3.53;;;14.90;99.90;;;;;;5015666;28;20087;-82
2022/05/12 04:27:43;;;;;;;5.63;3.85;;;14.80;99.90;;;;;;5016832;28;20025;-81
2022/05/12 04:30:11;;;;;;;7.03;3.15;;;14.70;99.90;;;;;;5028418;28;20026;-82
2022/05/12 04:32:38;;;;;;;7.63;3.38;;;14.70;99.90;;;;;;5016788;28;20116;-81
2022/05/12 04:35:14;;;;;;;6.70;3.10;;;14.70;99.90;;;;;;5033090;28;20072;-81
2022/05/12 04:37:47;;;;;;;5.32;3.55;;;14.60;99.90;;;;;;5016086;28;20029;-82
2022/05/12 04:40:18;;;;;;;7.40;3.08;;;14.60;99.90;;;;;;5016544;28;20036;-82
2022/05/12 04:42:44;;;;;;;5.75;3.60;;;14.50;99.90;;;;;;5033156;28;20068;-81
2022/05/12 04:45:11;;;;;;;4.10;3.22;;;14.50;99.90;;;;;;5016457;28;20025;-81
2022/05/12 04:47:39;;;;;;;10.10;3.53;;;14.40;99.90;;;;;;5016387;28;20052;-82
2022/05/12 04:50:08;;;;;;;7.40;3.63;;;14.40;99.90;;;;;;5015743;28;20128;-82
2022/05/12 04:52:34;;;;;;;6.55;3.50;;;14.30;99.90;;;;;;5016337;28;20065;-82
2022/05/12 04:55:00;;;;;;;9.73;3.70;;;14.20;99.90;;;;;;5032934;28;20059;-81
2022/05/12 04:57:26;;;;;;;5.70;3.15;;;14.10;99.90;;;;;;5032951;28;20030;-81
2022/05/12 04:59:55;;;;;;;5.05;3.35;;;14.10;99.90;;;;;;5015998;28;20030;-81
2022/05/12 05:02:21;;;;;;;4.25;2.85;;;14.20;99.90;;;;;;5016019;28;20037;-82
2022/05/12 05:04:48;;;;;;;5.65;3.35;;;14.20;99.90;;;;;;5016624;28;20040;-82
2022/05/12 05:07:16;;;;;;;11.48;4.05;;;14.20;99.90;;;;;;5032746;28;20117;-81
2022/05/12 05:09:43;;;;;;;6.00;3.17;;;14.20;99.90;;;;;;5016061;28;20033;-81
2022/05/12 05:12:09;;;;;;;6.40;4.93;;;14.30;99.90;;;;;;5015759;28;20037;-81
2022/05/12 05:14:35;;;;;;;7.47;3.55;;;14.40;99.90;;;;;;5032626;28;20733;-82
2022/05/12 05:17:00;;;;;;;9.95;3.80;;;14.50;99.90;;;;;;5032693;28;20033;-82
2022/05/12 05:19:26;;;;;;;12.20;4.22;;;14.60;99.90;;;;;;5015892;28;20079;-82
2022/05/12 05:21:52;;;;;;;7.97;3.33;;;14.60;99.90;;;;;;5015937;28;20441;-81
2022/05/12 05:24:18;;;;;;;5.47;3.53;;;14.70;99.90;;;;;;5035027;28;20087;-81
2022/05/12 05:26:44;;;;;;;8.18;3.22;;;14.70;99.90;;;;;;5036267;28;20037;-81
2022/05/12 05:29:10;;;;;;;6.65;3.08;;;14.80;99.90;;;;;;5032458;28;20487;-81
2022/05/12 05:31:39;;;;;;;9.95;3.42;;;14.90;99.90;;;;;;5015800;28;20571;-82
2022/05/12 05:34:05;;;;;;;8.13;3.88;;;14.90;99.90;;;;;;5015761;28;20079;-82
2022/05/12 05:36:31;;;;;;;7.28;3.63;;;15.00;99.90;;;;;;5031996;28;20112;-82
2022/05/12 05:38:57;;;;;;;5.13;3.25;;;15.10;99.90;;;;;;5031789;28;20030;-81
2022/05/12 05:41:23;;;;;;;7.00;2.60;;;15.20;99.90;;;;;;5010349;28;20056;-82
2022/05/12 05:43:49;;;;;;;6.18;3.17;;;15.20;99.90;;;;;;5015116;28;20033;-82
2022/05/12 05:46:16;;;;;;;7.10;3.15;;;15.30;99.90;;;;;;5032898;28;20059;-82
2022/05/12 05:48:43;;;;;;;6.10;2.72;;;15.30;99.90;;;;;;5031728;28;20065;-82
2022/05/12 05:53:54;;;;;;;8.02;3.33;;;15.50;99.90;;;;;;5031444;28;20026;-82
2022/05/12 05:56:20;;;;;;;9.65;3.10;;;15.50;99.90;;;;;;5013793;28;20068;-81
2022/05/12 05:58:46;;;;;;;12.02;3.20;;;15.60;99.90;;;;;;5031321;28;20068;-82
2022/05/12 06:01:12;;;;;;;15.07;2.67;;;15.70;99.90;;;;;;5030295;28;20048;-81
2022/05/12 06:03:38;;;;;;;4.93;3.03;;;15.80;99.90;;;;;;5031232;28;20037;-82
2022/05/12 06:06:04;;;;;;;8.25;3.00;;;15.90;99.90;;;;;;5031383;28;20100;-82
2022/05/12 06:08:31;;;;;;;11.70;3.35;;;15.90;99.90;;;;;;5031341;28;20132;-81
2022/05/12 06:11:02;;;;;;;6.45;2.70;;;16.00;99.90;;;;;;5014816;28;20021;-81
2022/05/12 06:13:28;;;;;;;;;;;16.10;99.90;;;;;;5015547;28;20033;-82
2022/05/12 06:15:54;;;;;;;5.68;2.53;;;16.10;99.90;;;;;;5047722;28;19909;-82
2022/05/12 06:18:19;;;;;;;5.15;3.00;;;16.10;99.90;;;;;;5014051;28;20036;-82
2022/05/12 06:20:47;;;;;;;9.75;3.17;;;16.10;99.90;;;;;;5014486;28;20136;-82
2022/05/12 06:23:13;;;;;;;39.67;19.25;;;16.30;99.90;;;;;;5031262;28;20088;-82
2022/05/12 06:25:40;;;;;;;5.32;3.28;;;16.40;99.90;;;;;;5014613;28;20091;-82
2022/05/12 06:28:07;;;;;;;5.45;3.05;;;16.30;99.90;;;;;;5030847;28;20480;-82
2022/05/12 06:33:57;;;;;;;4.30;3.00;;;16.40;99.90;;;;;;5030576;28;20045;-81
2022/05/12 06:36:23;;;;;;;6.35;2.70;;;16.40;99.90;;;;;;5014656;28;20033;-82
2022/05/12 06:38:49;;;;;;;5.60;3.55;;;16.50;99.90;;;;;;5031067;28;20034;-81
2022/05/12 06:41:16;;;;;;;5.38;3.03;;;16.70;99.90;;;;;;5032110;28;20118;-81
2022/05/12 06:43:45;;;;;;;7.50;3.10;;;16.90;99.90;;;;;;5014305;28;20029;-82
2022/05/12 06:46:15;;;;;;;14.85;3.13;;;17.10;99.90;;;;;;5014190;28;20032;-82
2022/05/12 06:48:46;;;;;;;4.78;3.05;;;17.30;99.90;;;;;;5013736;28;20038;-82
2022/05/12 06:51:13;;;;;;;9.27;3.00;;;17.40;99.90;;;;;;5029799;28;20033;-82
2022/05/12 06:53:39;;;;;;;6.30;2.70;;;17.50;99.90;;;;;;5011780;28;20116;-82
2022/05/12 06:56:07;;;;;;;9.48;2.53;;;17.70;99.90;;;;;;5017132;28;20120;-82
2022/05/12 06:58:33;;;;;;;4.45;2.83;;;17.90;99.90;;;;;;5017841;28;20040;-82
2022/05/12 07:01:02;;;;;;;5.10;2.47;;;18.10;99.90;;;;;;5017251;28;20401;-81
2022/05/12 07:03:29;;;;;;;6.95;2.90;;;18.30;99.90;;;;;;5017322;28;20040;-82
2022/05/12 07:05:56;;;;;;;5.85;2.60;;;18.10;99.90;;;;;;5033961;28;20029;-82
2022/05/12 07:08:22;;;;;;;7.35;2.00;;;18.10;99.90;;;;;;5017592;28;20112;-82
2022/05/12 07:10:48;;;;;;;7.20;2.70;;;18.30;99.90;;;;;;5034222;28;20457;-82
2022/05/12 07:13:19;;;;;;;9.20;2.55;;;18.60;99.90;;;;;;5034181;28;20036;-81
2022/05/12 07:15:47;;;;;;;8.88;2.63;;;19.20;99.90;;;;;;5017937;28;20038;-82
2022/05/12 07:18:14;;;;;;;6.85;2.60;;;19.30;99.90;;;;;;5018265;28;20033;-82
2022/05/12 07:28:53;;;;;;;10.00;2.88;;;18.50;99.90;;;;;;5035487;28;20025;-81
2022/05/12 07:31:19;;;;;;;7.15;2.13;;;18.50;99.90;;;;;;5033665;28;20163;-82
2022/05/12 07:33:46;;;;;;;8.55;2.20;;;18.40;99.90;;;;;;5034168;28;20473;-82
2022/05/12 07:36:17;;;;;;;5.90;2.00;;;18.60;99.90;;;;;;5017710;28;20040;-82
2022/05/12 07:38:43;;;;;;;5.72;2.00;;;18.50;99.90;;;;;;5033830;28;20044;-81
2022/05/12 07:41:12;;;;;;;5.93;1.95;;;18.50;99.90;;;;;;5016983;28;20643;-82
2022/05/12 07:43:39;;;;;;;9.30;2.47;;;18.50;99.90;;;;;;5017522;28;20034;-82
2022/05/12 07:46:06;;;;;;;9.75;2.80;;;18.50;99.90;;;;;;5016242;28;20068;-81
2022/05/12 07:48:32;;;;;;;8.25;2.72;;;18.60;99.90;;;;;;5017075;28;20040;-81
2022/05/12 07:50:58;;;;;;;5.97;1.98;;;18.70;99.90;;;;;;5016803;28;20079;-82
2022/05/12 07:53:24;;;;;;;10.95;2.25;;;18.80;99.90;;;;;;5033697;28;20033;-81
2022/05/12 07:55:50;;;;;;;8.13;2.03;;;18.70;99.90;;;;;;5033195;28;20112;-81
2022/05/12 07:58:16;;;;;;;3.25;1.85;;;18.70;99.90;;;;;;5017064;28;20080;-81
2022/05/12 08:00:41;;;;;;;6.55;2.35;;;18.60;99.90;;;;;;5029126;28;20033;-81
2022/05/12 08:03:07;;;;;;;9.07;2.45;;;18.60;99.90;;;;;;5032901;28;20036;-81
2022/05/12 08:05:33;;;;;;;9.45;2.50;;;18.30;99.90;;;;;;5032031;28;20030;-82
2022/05/12 08:07:59;;;;;;;14.15;2.92;;;18.30;99.90;;;;;;5033552;28;20029;-82
2022/05/12 08:10:25;;;;;;;9.23;2.58;;;18.30;99.90;;;;;;5033691;28;20104;-81
2022/05/12 08:12:50;;;;;;;4.97;2.33;;;18.30;99.90;;;;;;5033630;28;20039;-82
2022/05/12 08:15:17;;;;;;;9.57;2.42;;;18.30;99.90;;;;;;5034661;28;20029;-82
2022/05/12 08:17:43;;;;;;;6.72;2.50;;;18.20;99.90;;;;;;5017068;28;20071;-81
2022/05/12 08:20:11;;;;;;;7.40;2.55;;;18.20;99.90;;;;;;5016843;28;20065;-81
2022/05/12 08:22:37;;;;;;;6.85;2.40;;;18.00;99.90;;;;;;5017007;28;20029;-81
2022/05/12 08:25:04;;;;;;;9.27;2.47;;;17.90;99.90;;;;;;5034663;28;20032;-81
2022/05/12 08:27:31;;;;;;;8.73;2.25;;;17.80;99.90;;;;;;5016520;28;20112;-81
2022/05/12 08:29:57;;;;;;;9.43;1.90;;;17.80;99.90;;;;;;5032489;28;20021;-82
2022/05/12 08:32:23;;;;;;;9.23;2.40;;;17.80;99.90;;;;;;5032780;28;20030;-81
2022/05/12 08:34:48;;;;;;;6.93;2.05;;;17.90;99.90;;;;;;5016146;28;20021;-81
2022/05/12 08:37:15;;;;;;;13.98;2.83;;;17.90;99.90;;;;;;5015963;28;20034;-81
2022/05/12 08:39:44;;;;;;;8.75;2.97;;;17.90;99.90;;;;;;5012703;28;20057;-81
2022/05/12 08:42:37;;;;;;;8.18;2.13;;;17.90;99.90;;;;;;5030708;28;20025;-81
2022/05/12 08:45:07;;;;;;;6.75;2.03;;;17.90;99.90;;;;;;5025296;28;20045;-81
2022/05/12 08:47:38;;;;;;;5.00;1.95;;;18.00;99.90;;;;;;5015706;28;20045;-81
2022/05/12 08:50:07;;;;;;;5.32;2.13;;;18.00;99.90;;;;;;5033427;28;20018;-81
2022/05/12 08:52:46;;;;;;;7.32;2.08;;;18.20;99.90;;;;;;5033196;28;20095;-82
2022/05/12 08:55:43;;;;;;;10.63;3.67;;;18.30;99.90;;;;;;5032517;28;20730;-82
2022/05/12 08:58:21;;;;;;;6.70;2.90;;;18.30;99.90;;;;;;5015837;28;20092;-81
2022/05/12 09:01:00;;;;;;;7.72;2.35;;;18.60;99.90;;;;;;5014870;28;20026;-82
2022/05/12 09:03:44;;;;;;;5.97;2.00;;;19.00;99.90;;;;;;5032061;28;20033;-81
2022/05/12 09:06:26;;;;;;;12.68;2.00;;;19.00;99.90;;;;;;5028728;28;20717;-81
2022/05/12 09:09:04;;;;;;;5.95;1.92;;;19.10;99.90;;;;;;5015944;28;20029;-81
2022/05/12 09:11:56;;;;;;;5.47;2.15;;;19.20;99.90;;;;;;5015509;28;20061;-82
2022/05/12 09:14:33;;;;;;;;;;;19.40;99.90;;;;;;5015425;28;20079;-81
2022/05/12 09:17:00;;;;;;;11.70;2.10;;;20.10;99.90;;;;;;5064654;28;19948;-82
2022/05/12 09:19:27;;;;;;;6.90;1.95;;;21.30;99.90;;;;;;5012658;28;20649;-82
2022/05/12 09:21:55;;;;;;;4.45;1.90;;;21.50;99.90;;;;;;5013938;28;20396;-82
2022/05/12 09:24:21;;;;;;;4.95;1.77;;;21.60;99.90;;;;;;5015656;28;20037;-82
2022/05/12 09:27:05;;;;;;;5.53;1.38;;;21.60;99.90;;;;;;5015577;28;20087;-82
2022/05/12 09:29:31;;;;;;;3.97;1.92;;;21.30;99.90;;;;;;5015532;28;20059;-82
2022/05/12 09:32:03;;;;;;;7.75;2.00;;;20.50;99.90;;;;;;5015308;28;20037;-82
2022/05/12 09:34:32;;;;;;;9.25;1.95;;;20.40;99.90;;;;;;5030619;28;20038;-81
2022/05/12 09:37:18;;;;;;;8.75;2.22;;;20.60;99.90;;;;;;5029427;28;20025;-82
2022/05/12 09:39:52;;;;;;;3.55;1.92;;;21.80;99.90;;;;;;5015468;28;20065;-81
2022/05/12 09:42:27;;;;;;;5.68;1.40;;;22.10;99.90;;;;;;5015070;28;20037;-82
2022/05/12 09:44:57;;;;;;;8.65;1.35;;;20.90;99.90;;;;;;5031555;28;20033;-81
2022/05/12 09:47:23;;;;;;;5.63;1.40;;;20.00;99.90;;;;;;5015206;28;20033;-81
2022/05/12 09:49:50;;;;;;;7.22;1.60;;;19.50;99.90;;;;;;5014903;28;20539;-82
2022/05/12 09:52:18;;;;;;;5.40;1.63;;;19.20;99.90;;;;;;5014827;28;20124;-81
2022/05/12 09:54:44;;;;;;;5.13;1.52;;;18.90;99.90;;;;;;5014535;28;20556;-82
2022/05/12 09:57:10;;;;;;;7.20;2.10;;;18.80;99.90;;;;;;5014525;28;20393;-81
2022/05/12 09:59:37;;;;;;;5.13;1.90;;;18.90;99.90;;;;;;5014875;28;20051;-82
2022/05/12 10:02:06;;;;;;;4.28;1.80;;;19.40;99.90;;;;;;5031053;28;20389;-81
2022/05/12 10:10:16;;;;;;;6.53;1.30;;;19.80;99.90;;;;;;5030620;28;20045;-82
2022/05/12 10:13:00;;;;;;;3.13;1.77;;;19.80;99.90;;;;;;5030989;28;20372;-81
2022/05/12 10:15:39;;;;;;;3.30;1.58;;;19.90;99.90;;;;;;5031069;28;20041;-82
2022/05/12 10:18:37;;;;;;;5.32;1.52;;;20.10;99.90;;;;;;5031158;28;20258;-82
2022/05/12 10:21:15;;;;;;;6.40;1.67;;;20.30;99.90;;;;;;5031059;28;20128;-81
2022/05/12 10:23:44;;;;;;;5.80;2.10;;;20.00;99.90;;;;;;5014418;28;20051;-82
2022/05/12 10:26:42;;;;;;;3.05;1.27;;;20.70;99.90;;;;;;5014379;28;20037;-82
2022/05/12 10:30:11;;;;;;;6.70;2.38;;;20.80;99.90;;;;;;5002381;28;20033;-82
2022/05/12 10:32:55;;;;;;;5.82;2.25;;;20.70;99.90;;;;;;5009291;28;20048;-81
2022/05/12 10:35:26;;;;;;;8.68;1.70;;;21.40;99.90;;;;;;5018583;28;20065;-81
2022/05/12 10:38:07;;;;;;;7.75;1.85;;;21.70;99.90;;;;;;5018598;28;20029;-82
2022/05/12 10:40:43;;;;;;;3.47;1.92;;;21.30;99.90;;;;;;5017729;28;20057;-81
2022/05/12 10:43:18;;;;;;;8.10;2.17;;;21.30;99.90;;;;;;5018278;28;20041;-82
2022/05/12 10:46:44;;;;;;;3.17;1.50;;;21.30;99.90;;;;;;5018245;28;20071;-81
2022/05/12 10:49:24;;;;;;;4.75;1.85;;;21.80;99.90;;;;;;4978318;28;20868;-81
2022/05/12 10:51:55;;;;;;;6.57;1.75;;;21.70;99.90;;;;;;4977869;28;20692;-81
2022/05/12 10:54:27;;;;;;;4.60;2.10;;;21.90;99.90;;;;;;5003135;28;20037;-81
2022/05/12 10:57:24;;;;;;;3.55;1.65;;;21.90;99.90;;;;;;5036255;28;20037;-82
2022/05/12 11:00:08;;;;;;;11.23;1.73;;;21.90;99.90;;;;;;5018321;28;20044;-81
2022/05/12 11:02:47;;;;;;;6.45;1.80;;;22.40;99.90;;;;;;5018407;28;20100;-82
2022/05/12 11:05:24;;;;;;;7.45;1.88;;;23.00;99.90;;;;;;5034354;28;20048;-82
2022/05/12 11:08:14;;;;;;;3.35;1.50;;;23.10;99.90;;;;;;5034614;28;20393;-82
2022/05/12 11:10:47;;;;;;;4.20;1.67;;;22.80;99.90;;;;;;5013363;28;20021;-82
2022/05/12 11:13:17;;;;;;;6.30;1.80;;;23.40;99.90;;;;;;5034304;28;20025;-82
2022/05/12 11:15:51;;;;;;;6.63;1.73;;;23.40;99.90;;;;;;5034592;28;20088;-82
2022/05/12 11:18:28;;;;;;;11.57;1.70;;;23.30;99.90;;;;;;5017852;28;20342;-82
2022/05/12 11:21:12;;;;;;;4.80;1.40;;;23.50;99.90;;;;;;5017656;28;20037;-82
2022/05/12 11:23:52;;;;;;;6.18;1.70;;;23.60;99.90;;;;;;5034048;28;20127;-82
2022/05/12 11:26:17;;;;;;;5.13;1.30;;;22.80;99.90;;;;;;5033966;28;20083;-82
2022/05/12 11:31:53;;;;;;;5.68;1.38;;;23.30;99.90;;;;;;5033966;28;20030;-82
2022/05/12 11:34:22;;;;;;;6.05;1.50;;;23.30;99.90;;;;;;5017406;28;20073;-82
2022/05/12 11:36:51;;;;;;;6.15;1.88;;;23.40;99.90;;;;;;5033851;28;20041;-82
2022/05/12 11:39:51;;;;;;;7.13;1.48;;;23.90;99.90;;;;;;5032793;28;20481;-82
2022/05/12 11:42:20;;;;;;;4.07;1.30;;;23.70;99.90;;;;;;5015341;28;20038;-82
2022/05/12 11:44:57;;;;;;;6.40;2.00;;;23.50;99.90;;;;;;5034883;28;20079;-82
2022/05/12 11:47:31;;;;;;;8.30;1.67;;;23.60;99.90;;;;;;5017235;28;20489;-82
2022/05/12 11:50:09;;;;;;;5.45;2.47;;;22.90;99.90;;;;;;5017427;28;20432;-81
2022/05/12 11:53:12;;;;;;;3.38;1.45;;;22.10;99.90;;;;;;5016953;28;20030;-81
2022/05/12 11:55:53;;;;;;;2.40;1.67;;;22.00;99.90;;;;;;5033875;28;20781;-81
2022/05/12 11:58:31;;;;;;;6.32;1.45;;;22.40;99.90;;;;;;5033940;28;20041;-81
2022/05/12 12:00:59;;;;;;;8.30;2.25;;;22.50;99.90;;;;;;5017200;28;20040;-81
2022/05/12 12:03:25;;;;;;;5.40;2.40;;;22.50;99.90;;;;;;5017342;28;20029;-81
2022/05/12 12:05:59;;;;;;;5.53;2.22;;;22.10;99.90;;;;;;5017276;28;20508;-82
2022/05/12 12:08:31;;;;;;;8.85;2.17;;;21.90;99.90;;;;;;5016972;28;20069;-81
2022/05/12 12:11:15;;;;;;;7.15;1.75;;;21.90;99.90;;;;;;5029903;28;20022;-81
2022/05/12 12:13:46;;;;;;;5.30;1.60;;;21.60;99.90;;;;;;5016509;28;20432;-82
2022/05/12 12:16:16;;;;;;;6.00;1.85;;;21.60;99.90;;;;;;5016035;28;20132;-82
2022/05/12 12:18:47;;;;;;;3.30;1.60;;;21.30;99.90;;;;;;5016437;28;20044;-81
2022/05/12 12:21:36;;;;;;;7.30;1.77;;;20.90;99.90;;;;;;5012228;28;20436;-82
2022/05/12 12:24:37;;;;;;;5.18;1.73;;;20.80;99.90;;;;;;5016799;28;20503;-82
2022/05/12 12:27:19;;;;;;;3.65;1.73;;;21.00;99.90;;;;;;5026274;28;20457;-82
2022/05/12 12:29:49;;;;;;;18.17;2.90;;;21.80;99.90;;;;;;5016445;28;20047;-82
2022/05/12 12:32:25;;;;;;;6.35;1.40;;;23.20;99.90;;;;;;5033292;28;20036;-82
2022/05/12 12:34:53;;;;;;;1.80;1.13;;;24.10;99.90;;;;;;5016429;28;20030;-82
2022/05/12 12:37:51;;;;;;;5.15;1.88;;;24.10;99.90;;;;;;5034466;28;20481;-82
2022/05/12 12:40:32;;;;;;;5.45;1.35;;;24.20;99.90;;;;;;5016191;28;20029;-82
2022/05/12 12:42:59;;;;;;;8.13;1.58;;;25.10;99.90;;;;;;5016040;28;20037;-82
2022/05/12 12:45:25;;;;;;;4.82;1.10;;;25.20;99.90;;;;;;5016028;28;20033;-82
2022/05/12 12:48:00;;;;;;;6.20;1.50;;;25.50;99.90;;;;;;5032061;28;20048;-82
2022/05/12 12:50:44;;;;;;;2.80;1.40;;;25.90;99.90;;;;;;5015694;28;20038;-82
2022/05/12 12:56:32;;;;;;;4.18;1.27;;;25.00;98.90;;;;;;5033902;28;20029;-82
2022/05/12 12:59:11;;;;;;;8.88;1.70;;;24.90;99.10;;;;;;5032873;28;20090;-82
2022/05/12 13:01:44;;;;;;;10.50;1.48;;;24.50;99.20;;;;;;5032290;28;20485;-82
2022/05/12 13:04:11;;;;;;;3.90;1.48;;;24.20;99.10;;;;;;5032274;28;20045;-82
2022/05/12 13:06:38;;;;;;;5.70;1.80;;;24.20;99.80;;;;;;5015948;28;20108;-83
2022/05/12 13:09:10;;;;;;;6.32;1.38;;;24.20;98.00;;;;;;5032476;28;20041;-82
2022/05/12 13:11:38;;;;;;;3.40;1.63;;;24.00;99.60;;;;;;5015683;28;20033;-81
2022/05/12 13:14:07;;;;;;;3.92;1.30;;;24.50;98.80;;;;;;5031822;28;20818;-82
2022/05/12 13:16:36;;;;;;;6.85;1.40;;;24.50;98.00;;;;;;5015805;28;20486;-82
2022/05/12 13:19:03;;;;;;;4.50;1.33;;;24.70;98.50;;;;;;5015377;28;20041;-83
2022/05/12 13:21:36;;;;;;;5.93;1.52;;;24.20;97.60;;;;;;5015309;28;20041;-82
2022/05/12 13:24:22;;;;;;;19.50;1.75;;;23.50;99.90;;;;;;5014642;28;20068;-82
2022/05/12 13:26:59;;;;;;;5.55;1.70;;;23.70;99.90;;;;;;5032163;28;20033;-82
2022/05/12 13:29:36;;;;;;;5.78;1.80;;;23.70;99.70;;;;;;5031966;28;20034;-82